Tiempo atmosférico en la estación meteorológica de Ainsa, Huesca (610 m.)

Fecha
DESCASC
Temp. máxima en grados centígrados (hora)
DESCASC
Temp. mínima en grados centígrados (hora)
DESCASC
Temp. media en grados centígrados
DESCASC
Racha de viento máxima en m/sg (hora)
DESCASC
Velocidad máxima media en intervalos de 10 minutos(hora)
DESCASC
Precipitaciones diarias en mm
DESCASC
Precipitaciones de 00:00 a 06:00 en mm
DESCASC
Precipitaciones de 06:00 a 12:00 en mm
DESCASC
Precipitaciones de 12:00 a 18:00 en mm
DESCASC
Precipitaciones de 18:00 a 24:00 en mm
DESCASC
21-08-2017 33.5 (16:00) 14.5 (06:50) 24 9.17 (18:00) 6.39 (18:10) 0 0 0 0 0
20-08-2017 29.1 (17:00) 13.3 (07:40) 21.2 8.89 (16:40) 6.67 (15:40) 0 0 0 0 0
19-08-2017 30 (17:00) 17.2 (08:00) 23.6 11.39 (16:50) 7.5 (17:40) 0 0 0 0 0
18-08-2017 34.4 (19:00) 18.8 (07:10) 26.6 10.83 (15:30) 6.39 (15:30) 0.6 0 0 0.6 0
17-08-2017 33.2 (16:40) 16.6 (00:00) 24.9 9.44 (16:10) 7.22 (15:50) 0 0 0 0 0
16-08-2017 31.9 (16:10) 17 (00:00) 24.4 7.5 (20:00) 5 (19:00) 0 0 0 0 0
15-08-2017 32.1 (16:40) 16.8 (00:00) 24.4 9.44 (20:40) 5.83 (16:50) 0.2 0 0 0 0.2
14-08-2017 32.8 (16:20) 15.8 (07:20) 24.3 8.61 (16:30) 6.67 (17:00) 0 0 0 0 0
13-08-2017 30.6 (16:20) 13.6 (00:00) 22.1 9.17 (18:40) 6.39 (17:40) 0 0 0 0 0
12-08-2017 28.1 (16:00) 10.9 (00:00) 19.5 10 (18:10) 7.5 (18:10) 0 0 0 0 0
11-08-2017 26.5 (17:00) 10.1 (00:00) 18.3 9.72 (00:10) 7.78 (18:10) 0 0 0 0 0
10-08-2017 24.7 (15:50) 8.3 (00:00) 16.5 11.94 (19:30) 8.06 (23:20) 0 0 0 0 0
09-08-2017 21.4 (14:00) 11.5 (00:00) 16.4 9.72 (16:00) 6.67 (15:50) 0 0 0 0 0
08-08-2017 29.6 (16:20) 18 (00:00) 23.8 10.83 (18:30) 7.5 (18:10) 0 0 0 0 0
07-08-2017 30.2 (18:00) 19.2 (00:00) 24.7 8.06 (14:30) 5.28 (14:40) 0.2 0.2 0 0 0
06-08-2017 28.5 (18:30) 19.2 (00:00) 23.9 6.94 (02:50) 4.72 (02:50) 8 8 0 0 0
05-08-2017 34.9 (15:00) 20.2 (00:00) 27.6 14.72 (18:20) 9.72 (18:20) 13 0 0 0 13
04-08-2017 35.6 (15:30) 20.1 (00:00) 27.8 9.44 (16:40) 7.5 (16:40) 0 0 0 0 0
03-08-2017 36.7 (16:10) 18.9 (00:00) 27.8 8.06 (20:20) 4.72 (20:00) 0 0 0 0 0
02-08-2017 34.1 (14:40) 19.2 (00:00) 26.6 9.17 (17:00) 6.39 (20:00) 0 0 0 0 0
01-08-2017 31.3 (17:30) 18.2 (00:00) 24.8 8.89 (17:50) 5 (17:50) 1.4 0.4 1 0 0
31-07-2017 34.8 (16:50) 18.3 (00:00) 26.5 8.89 (17:00) 6.39 (17:10) 0 0 0 0 0
30-07-2017 35 (16:30) 20.3 (00:00) 27.6 11.11 (16:10) 7.22 (15:10) 0 0 0 0 0
29-07-2017 33.3 (17:10) 18.7 (00:00) 26 6.67 (15:00) 5 (20:40) 0 0 0 0 0
28-07-2017 31.9 (15:00) 16.8 (00:00) 24.3 8.61 (16:40) 6.39 (17:00) 0 0 0 0 0
27-07-2017 34.8 (17:50) 15.1 (00:00) 24.9 11.11 (19:10) 7.22 (18:30) 0 0 0 0 0
26-07-2017 29.6 (18:50) 12.1 (00:00) 20.9 6.11 (00:20) 5 (01:30) 0 0 0 0 0
25-07-2017 28.1 (17:10) 12.4 (00:00) 20.3 10.56 (00:20) 7.5 (00:20) 0 0 0 0 0
24-07-2017 29.8 (16:00) 14.5 (00:00) 22.1 13.33 (23:20) 8.06 (23:30) 0 0 0 0 0
23-07-2017 28.4 (14:50) 17.7 (00:00) 23.1 11.67 (17:50) 9.17 (18:00) 0 0 0 0 0

Gráficas

Temp. máximas Temp. mínimas Temp. medias Precipitaciones Rachas de viento máximas Velocidades máximas media en intervalos de 10 minutos

Datos horarios

Fecha y hora oficial Temperatura (ºC) Velocidad del viento (km/h) Dirección del viento Racha (km/h) Dirección de racha Precipitación (mm) Presión (hPa) Tendencia (hPa) Humedad (%)
2017-08-21 23:00:00 23.4 12 Noroeste 15 Noroeste 0 -- -- 43
2017-08-21 22:00:00 26.4 8 Norte 12 Norte 0 -- -- 37
2017-08-21 21:00:00 27.7 9 Sudeste 22 Sudeste 0 -- -- 39
2017-08-21 20:00:00 29.7 18 Sudeste 24 Sur 0 -- -- 33
2017-08-21 19:00:00 31.6 18 Sudeste 31 Sudeste 0 -- -- 29
2017-08-21 18:00:00 32.1 22 Sudeste 33 Sudeste 0 -- -- 33
2017-08-21 17:00:00 32.3 22 Sudeste 28 Sudeste 0 -- -- 34
2017-08-21 16:00:00 33.5 15 Sudeste 22 Sudeste 0 -- -- 29
2017-08-21 15:00:00 32.6 13 Sudeste 18 Sudeste 0 -- -- 29
2017-08-21 14:00:00 31.1 10 Sudeste 18 Sudeste 0 -- -- 32
2017-08-21 13:00:00 29.7 12 Sudeste 18 Sudeste 0 -- -- 31
2017-08-21 12:00:00 27.3 10 Sudeste 16 Sudeste 0 -- -- 41
2017-08-21 11:00:00 24 6 Sudeste 12 Sudeste 0 -- -- 47
2017-08-21 10:00:00 20.3 3 Este 10 Este 0 -- -- 58
2017-08-21 09:00:00 16.5 3 Noroeste 12 Norte 0 -- -- 68
2017-08-21 08:00:00 14.7 3 Noroeste 13 Noroeste 0 -- -- 74
2017-08-21 07:00:00 14.5 9 Norte 14 Norte 0 -- -- 75
2017-08-21 06:00:00 15.3 4 Noroeste 12 Noroeste 0 -- -- 72
2017-08-21 05:00:00 16.1 7 Noroeste 13 Oeste 0 -- -- 70
2017-08-21 04:00:00 16.5 5 Noroeste 8 Noroeste 0 -- -- 71
2017-08-21 03:00:00 17.7 4 Oeste 15 Noroeste 0 -- -- 63
2017-08-21 02:00:00 18.2 8 Noroeste 17 Norte 0 -- -- 65
2017-08-21 01:00:00 19.2 8 Oeste 11 Oeste 0 -- -- 61
2017-08-21 00:00:00 20.3 7 Noroeste 13 Noroeste 0 -- -- 59
2017-08-20 23:00:00 22.3 10 Norte 13 Norte 0 -- -- 54
2017-08-20 22:00:00 24.1 4 Sudeste 22 Sudeste 0 -- -- 49
2017-08-20 21:00:00 25.1 17 Sudeste 25 Sudeste 0 -- -- 50
2017-08-20 20:00:00 26.9 21 Sudeste 28 Sudeste 0 -- -- 47
2017-08-20 19:00:00 28.5 17 Sudeste 26 Sudeste 0 -- -- 42
2017-08-20 18:00:00 29 17 Sudeste 27 Sudeste 0 -- -- 40
2017-08-20 17:00:00 29.1 21 Sudeste 32 Sudeste 0 -- -- 40
2017-08-20 16:00:00 28.7 21 Sudeste 32 Sudeste 0 -- -- 40
2017-08-20 15:00:00 28.5 19 Sudeste 28 Sudeste 0 -- -- 39
2017-08-20 14:00:00 27.7 21 Sudeste 26 Sudeste 0 -- -- 43
2017-08-20 13:00:00 27 9 Sudeste 16 Sudeste 0 -- -- 48
2017-08-20 12:00:00 25.1 6 Sudeste 13 Sur 0 -- -- 51
2017-08-20 11:00:00 22.9 7 Sudeste 12 Este 0 -- -- 49
2017-08-20 10:00:00 19.6 5 Este 10 Este 0 -- -- 52
2017-08-20 09:00:00 15.7 0 Calma 8 Nordeste 0 -- -- 62
2017-08-20 08:00:00 13.3 6 Oeste 13 Noroeste 0 -- -- 66
2017-08-20 07:00:00 13.9 7 Oeste 11 Oeste 0 -- -- 61
2017-08-20 06:00:00 13.9 9 Noroeste 12 Noroeste 0 -- -- 70
2017-08-20 05:00:00 15.7 4 Oeste 12 Norte 0 -- -- 54
2017-08-20 04:00:00 16.3 8 Noroeste 14 Noroeste 0 -- -- 60
2017-08-20 03:00:00 17.1 10 Noroeste 13 Oeste 0 -- -- 51
2017-08-20 02:00:00 17.8 6 Oeste 14 Noroeste 0 -- -- 51
2017-08-20 01:00:00 19.5 6 Noroeste 11 Noroeste 0 -- -- 49
2017-08-20 00:00:00 20.4 8 Noroeste 13 Oeste 0 -- -- 44
2017-08-19 23:00:00 21.8 10 Noroeste 14 Oeste 0 -- -- 48
2017-08-19 22:00:00 24.9 4 Sudoeste 21 Este 0 -- -- 44
2017-08-19 21:00:00 26.7 7 Este 20 Nordeste 0 -- -- 39
2017-08-19 20:00:00 28.4 15 Este 36 Sudeste 0 -- -- 38
2017-08-19 19:00:00 29.3 22 Sudeste 37 Sudeste 0 -- -- 39
2017-08-19 18:00:00 29.4 26 Sudeste 38 Sudeste 0 -- -- 40
2017-08-19 17:00:00 30 22 Sudeste 41 Sudeste 0 -- -- 41
2017-08-19 16:00:00 29.1 23 Sudeste 34 Sudeste 0 -- -- 43
2017-08-19 15:00:00 29.2 20 Sudeste 29 Sudeste 0 -- -- 41
2017-08-19 14:00:00 28.6 16 Sudeste 23 Sudeste 0 -- -- 43
2017-08-19 13:00:00 27.4 12 Sudeste 19 Sudeste 0 -- -- 48
2017-08-19 12:00:00 26 12 Sudeste 21 Sudeste 0 -- -- 54
2017-08-19 11:00:00 23.8 9 Sudeste 13 Sudeste 0 -- -- 62
2017-08-19 10:00:00 21.1 4 Este 9 Este 0 -- -- 59
2017-08-19 09:00:00 18.4 0 Calma 8 Noroeste 0 -- -- 65
2017-08-19 08:00:00 17.2 5 Oeste 9 Oeste 0 -- -- 63
2017-08-19 07:00:00 17.6 7 Noroeste 10 Oeste 0 -- -- 62
2017-08-19 06:00:00 18.8 6 Oeste 9 Noroeste 0 -- -- 59
2017-08-19 05:00:00 19.9 5 Noroeste 12 Oeste 0 -- -- 57
2017-08-19 04:00:00 20.6 3 Oeste 12 Norte 0 -- -- 57
2017-08-19 03:00:00 21.6 8 Norte 12 Norte 0 -- -- 53
2017-08-19 02:00:00 22.7 7 Norte 12 Norte 0 -- -- 50
2017-08-19 01:00:00 24 5 Oeste 14 Noroeste 0 -- -- 46
2017-08-19 00:00:00 25 12 Noroeste 18 Oeste 0 -- -- 45
2017-08-18 23:00:00 26.3 5 Nordeste 17 Oeste 0 -- -- 41
2017-08-18 22:00:00 26.9 7 Oeste 30 Oeste 0 -- -- 37
2017-08-18 21:00:00 29.3 15 Oeste 28 Oeste 0 -- -- 34
2017-08-18 20:00:00 32.5 17 Oeste 32 Oeste 0 -- -- 31
2017-08-18 19:00:00 34.4 16 Oeste 28 Oeste 0 -- -- 30
2017-08-18 18:00:00 32.2 12 Sudeste 16 Sudeste 0 -- -- 42
2017-08-18 17:00:00 32.9 9 Sudeste 21 Este 0 -- -- 40
2017-08-18 16:00:00 30.2 10 Este 39 Sudeste 0.6 -- -- 51
2017-08-18 15:00:00 33.2 12 Sudeste 24 Sudeste 0 -- -- 36
2017-08-18 14:00:00 33.7 10 Sudeste 20 Sudeste 0 -- -- 34
2017-08-18 13:00:00 32 8 Sudeste 15 Sudeste 0 -- -- 37
2017-08-18 12:00:00 30.2 6 Sudeste 11 Este 0 -- -- 40
2017-08-18 11:00:00 26.9 5 Sudeste 9 Sudeste 0 -- -- 48
2017-08-18 10:00:00 23.7 0 Calma 5 Oeste 0 -- -- 57
2017-08-18 09:00:00 20.5 0 Calma 10 Norte 0 -- -- 65
2017-08-18 08:00:00 19.1 0 Calma 10 Noroeste 0 -- -- 67
2017-08-18 07:00:00 18.9 7 Noroeste 10 Noroeste 0 -- -- 68
2017-08-18 06:00:00 19.5 5 Noroeste 12 Norte 0 -- -- 65
2017-08-18 05:00:00 19.9 9 Noroeste 15 Oeste 0 -- -- 65
2017-08-18 04:00:00 20.2 8 Norte 14 Norte 0 -- -- 64
2017-08-18 03:00:00 21 6 Oeste 12 Noroeste 0 -- -- 60
2017-08-18 02:00:00 21.4 9 Noroeste 15 Noroeste 0 -- -- 58
2017-08-18 01:00:00 22.7 5 Noroeste 13 Norte 0 -- -- 54
2017-08-18 00:00:00 23.9 5 Norte 16 Oeste 0 -- -- 51
2017-08-17 23:00:00 25.9 9 Noroeste 14 Oeste 0 -- -- 46
2017-08-17 22:00:00 27.7 7 Este 25 Sudeste 0 -- -- 43
2017-08-17 21:00:00 28.8 17 Sudeste 27 Sudeste 0 -- -- 44
2017-08-17 20:00:00 31.1 20 Sudeste 28 Sudeste 0 -- -- 38
2017-08-17 19:00:00 32.6 18 Sudeste 27 Sudeste 0 -- -- 37
2017-08-17 18:00:00 32.9 20 Sudeste 31 Sudeste 0 -- -- 36
2017-08-17 17:00:00 32.9 23 Sudeste 34 Sudeste 0 -- -- 36
2017-08-17 16:00:00 32.8 24 Sudeste 32 Sudeste 0 -- -- 37
2017-08-17 15:00:00 32.4 22 Sudeste 28 Sudeste 0 -- -- 41
2017-08-17 14:00:00 32.7 14 Sudeste 22 Sudeste 0 -- -- 36
2017-08-17 13:00:00 31.2 7 Sudeste 17 Sudeste 0 -- -- 39
2017-08-17 12:00:00 29.1 10 Sudeste 15 Sudeste 0 -- -- 49
2017-08-17 11:00:00 26.3 4 Sudeste 9 Este 0 -- -- 43
2017-08-17 10:00:00 22.6 2 Oeste 8 Oeste 0 -- -- 58
2017-08-17 09:00:00 19.2 3 Oeste 11 Norte 0 -- -- 67
2017-08-17 08:00:00 16.8 7 Noroeste 10 Oeste 0 -- -- 62
2017-08-17 07:00:00 16.9 8 Noroeste 16 Norte 0 -- -- 63
2017-08-17 06:00:00 17.5 9 Oeste 12 Norte 0 -- -- 60
2017-08-17 05:00:00 18.3 8 Noroeste 13 Noroeste 0 -- -- 67
2017-08-17 04:00:00 19.4 4 Noroeste 13 Noroeste 0 -- -- 62
2017-08-17 03:00:00 20.1 6 Oeste 14 Norte 0 -- -- 58
2017-08-17 02:00:00 20.8 9 Noroeste 17 Noroeste 0 -- -- 60
2017-08-17 01:00:00 21.8 5 Noroeste 12 Noroeste 0 -- -- 57
2017-08-17 00:00:00 23.1 7 Noroeste 14 Noroeste 0 -- -- 56
2017-08-16 23:00:00 25.1 5 Noroeste 14 Oeste 0 -- -- 50
2017-08-16 22:00:00 26.8 10 Oeste 14 Noroeste 0 -- -- 44
2017-08-16 21:00:00 29.1 8 Noroeste 22 Sudeste 0 -- -- 45
2017-08-16 20:00:00 29.7 17 Sudeste 27 Sudeste 0 -- -- 50
2017-08-16 19:00:00 30.6 18 Sudeste 24 Sudeste 0 -- -- 46
2017-08-16 18:00:00 30.7 14 Sudeste 23 Sudeste 0 -- -- 46
2017-08-16 17:00:00 30.5 16 Sudeste 23 Sudeste 0 -- -- 47
2017-08-16 16:00:00 31.8 11 Sudeste 18 Sudeste 0 -- -- 38
2017-08-16 15:00:00 31.6 10 Sudeste 20 Este 0 -- -- 39
2017-08-16 14:00:00 30.5 12 Sudeste 18 Sudeste 0 -- -- 42
2017-08-16 13:00:00 29 9 Sudeste 15 Sudeste 0 -- -- 44
2017-08-16 12:00:00 26.8 7 Sudeste 12 Sudeste 0 -- -- 52
2017-08-16 11:00:00 23.5 5 Sudeste 8 Sudeste 0 -- -- 62
2017-08-16 10:00:00 21.2 3 Sur 7 Sudeste 0 -- -- 72
2017-08-16 09:00:00 18.8 3 Norte 9 Norte 0 -- -- 78
2017-08-16 08:00:00 17.8 7 Norte 17 Noroeste 0 -- -- 79
2017-08-16 07:00:00 17.6 8 Noroeste 17 Noroeste 0 -- -- 82
2017-08-16 06:00:00 17 5 Noroeste 10 Norte 0 -- -- 87
2017-08-16 05:00:00 17.8 6 Norte 15 Norte 0 -- -- 81
2017-08-16 04:00:00 18.2 12 Norte 18 Norte 0 -- -- 80
2017-08-16 03:00:00 18.7 7 Noroeste 17 Norte 0 -- -- 80
2017-08-16 02:00:00 19.5 14 Norte 16 Norte 0 -- -- 79
2017-08-16 01:00:00 20.1 8 Norte 21 Norte 0 -- -- 77
2017-08-16 00:00:00 21 11 Norte 16 Norte 0 -- -- 75
2017-08-15 23:00:00 22.1 8 Noroeste 27 Norte 0 -- -- 70
2017-08-15 22:00:00 23.1 14 Norte 22 Este 0 -- -- 69
2017-08-15 21:00:00 24.9 15 Sudeste 34 Sur 0.2 -- -- 63
2017-08-15 20:00:00 29.1 18 Sur 29 Sur 0 -- -- 42
2017-08-15 19:00:00 30.5 16 Sudeste 24 Sudeste 0 -- -- 34
2017-08-15 18:00:00 31.7 17 Sudeste 28 Sudeste 0 -- -- 31
2017-08-15 17:00:00 31.8 19 Sudeste 27 Sudeste 0 -- -- 31
2017-08-15 16:00:00 32 4 Este 15 Noroeste 0 -- -- 32
2017-08-15 15:00:00 30.8 6 Este 19 Nordeste 0 -- -- 35
2017-08-15 14:00:00 28.7 10 Norte 18 Norte 0 -- -- 47
2017-08-15 13:00:00 27 7 Sudeste 24 Sudeste 0 -- -- 47
2017-08-15 12:00:00 27.1 4 Sudeste 15 Sudoeste 0 -- -- 40
2017-08-15 11:00:00 25.7 4 Sur 9 Sudeste 0 -- -- 49
2017-08-15 10:00:00 22.1 2 Sur 9 Oeste 0 -- -- 62
2017-08-15 09:00:00 19 3 Noroeste 10 Noroeste 0 -- -- 71
2017-08-15 08:00:00 17.2 7 Noroeste 13 Noroeste 0 -- -- 76
2017-08-15 07:00:00 17.3 9 Norte 11 Norte 0 -- -- 75
2017-08-15 06:00:00 17.9 6 Oeste 10 Oeste 0 -- -- 73
2017-08-15 05:00:00 19 3 Noroeste 9 Noroeste 0 -- -- 68
2017-08-15 04:00:00 19.3 9 Oeste 11 Oeste 0 -- -- 66
2017-08-15 03:00:00 20.6 6 Este 9 Sudeste 0 -- -- 61
2017-08-15 02:00:00 20.7 5 Oeste 17 Oeste 0 -- -- 62
2017-08-15 01:00:00 20.9 5 Este 18 Norte 0 -- -- 60
2017-08-15 00:00:00 22.5 4 Noroeste 9 Norte 0 -- -- 54
2017-08-14 23:00:00 24.2 0 Calma 16 Sur 0 -- -- 49
2017-08-14 22:00:00 25.7 13 Sur 19 Sur 0 -- -- 46
2017-08-14 21:00:00 28 13 Sur 22 Sur 0 -- -- 41
2017-08-14 20:00:00 30.3 13 Sur 24 Sudeste 0 -- -- 33
2017-08-14 19:00:00 31.1 18 Sudeste 27 Sudeste 0 -- -- 31
2017-08-14 18:00:00 32.2 17 Sudeste 31 Sudeste 0 -- -- 30
2017-08-14 17:00:00 32 24 Sudeste 31 Sudeste 0 -- -- 30
2017-08-14 16:00:00 32.5 15 Sudeste 24 Sudeste 0 -- -- 31
2017-08-14 15:00:00 32.6 13 Sudeste 20 Sudeste 0 -- -- 32
2017-08-14 14:00:00 31.8 10 Sudeste 18 Sudeste 0 -- -- 30
2017-08-14 13:00:00 30 8 Sudeste 16 Sudeste 0 -- -- 40
2017-08-14 12:00:00 27.8 8 Sudeste 15 Sudeste 0 -- -- 43
2017-08-14 11:00:00 25.1 5 Este 12 Este 0 -- -- 49
2017-08-14 10:00:00 22.1 3 Sur 7 Oeste 0 -- -- 59
2017-08-14 09:00:00 18.5 0 Calma 8 Nordeste 0 -- -- 69
2017-08-14 08:00:00 16.4 3 Noroeste 10 Norte 0 -- -- 74
2017-08-14 07:00:00 16.2 4 Norte 9 Noroeste 0 -- -- 74
2017-08-14 06:00:00 16.7 7 Oeste 19 Norte 0 -- -- 70
2017-08-14 05:00:00 16.9 8 Noroeste 13 Oeste 0 -- -- 71
2017-08-14 04:00:00 17.6 9 Noroeste 15 Noroeste 0 -- -- 68
2017-08-14 03:00:00 17.7 8 Noroeste 12 Oeste 0 -- -- 67
2017-08-14 02:00:00 18.8 6 Noroeste 16 Noroeste 0 -- -- 63
2017-08-14 01:00:00 19.6 7 Noroeste 12 Norte 0 -- -- 57
2017-08-14 00:00:00 21.2 10 Norte 13 Norte 0 -- -- 53
2017-08-13 23:00:00 22.7 5 Norte 12 Norte 0 -- -- 49
2017-08-13 22:00:00 24.7 9 Sudeste 15 Sur 0 -- -- 46
2017-08-13 21:00:00 26.1 15 Sudeste 21 Sudeste 0 -- -- 43
2017-08-13 20:00:00 28.2 17 Sudeste 29 Sudeste 0 -- -- 37
2017-08-13 19:00:00 29 20 Sudeste 33 Sur 0 -- -- 37
2017-08-13 18:00:00 30.2 22 Sudeste 31 Sudeste 0 -- -- 35
2017-08-13 17:00:00 30.4 21 Sudeste 30 Sudeste 0 -- -- 35
2017-08-13 16:00:00 30.2 16 Sudeste 28 Sudeste 0 -- -- 33
2017-08-13 15:00:00 30.3 13 Sudeste 21 Sudeste 0 -- -- 32
2017-08-13 14:00:00 29.2 10 Sudeste 19 Sudeste 0 -- -- 35
2017-08-13 13:00:00 28.2 11 Sudeste 18 Sudeste 0 -- -- 39
2017-08-13 12:00:00 26.2 10 Sudeste 14 Sudeste 0 -- -- 41
2017-08-13 11:00:00 23.4 6 Este 11 Sudeste 0 -- -- 50
2017-08-13 10:00:00 20.3 4 Este 9 Este 0 -- -- 60
2017-08-13 09:00:00 16.5 0 Calma 9 Norte 0 -- -- 70
2017-08-13 08:00:00 14 4 Noroeste 14 Norte 0 -- -- 76
2017-08-13 07:00:00 14.1 7 Noroeste 14 Noroeste 0 -- -- 75
2017-08-13 06:00:00 14.4 5 Noroeste 12 Noroeste 0 -- -- 74
2017-08-13 05:00:00 14.9 7 Noroeste 13 Noroeste 0 -- -- 71
2017-08-13 04:00:00 15.2 6 Noroeste 14 Norte 0 -- -- 71
2017-08-13 03:00:00 16.3 7 Noroeste 12 Oeste 0 -- -- 66
2017-08-13 02:00:00 17.2 10 Oeste 14 Noroeste 0 -- -- 63
2017-08-13 01:00:00 18.2 8 Noroeste 13 Noroeste 0 -- -- 59
2017-08-13 00:00:00 19.5 11 Noroeste 15 Noroeste 0 -- -- 56
2017-08-12 23:00:00 20.9 9 Norte 14 Norte 0 -- -- 52
2017-08-12 22:00:00 23 5 Sudeste 18 Sudeste 0 -- -- 46
2017-08-12 21:00:00 24.1 16 Sudeste 24 Sudeste 0 -- -- 44
2017-08-12 20:00:00 26 17 Sudeste 30 Sudeste 0 -- -- 39
2017-08-12 19:00:00 26.3 26 Sudeste 36 Sudeste 0 -- -- 40
2017-08-12 18:00:00 27.7 24 Sudeste 35 Sudeste 0 -- -- 38
2017-08-12 17:00:00 27.6 24 Sudeste 30 Sudeste 0 -- -- 38
2017-08-12 16:00:00 28.1 17 Sudeste 26 Sudeste 0 -- -- 35
2017-08-12 15:00:00 27 12 Sudeste 21 Sudeste 0 -- -- 39
2017-08-12 14:00:00 26 9 Sudeste 15 Sudeste 0 -- -- 39
2017-08-12 13:00:00 24 5 Sudoeste 15 Sudeste 0 -- -- 43
2017-08-12 12:00:00 22.5 4 Sur 14 Sudeste 0 -- -- 46
2017-08-12 11:00:00 20.1 6 Este 11 Sudeste 0 -- -- 51
2017-08-12 10:00:00 17.7 6 Nordeste 12 Este 0 -- -- 52
2017-08-12 09:00:00 14.2 4 Oeste 13 Norte 0 -- -- 61
2017-08-12 08:00:00 11.2 7 Noroeste 16 Oeste 0 -- -- 70
2017-08-12 07:00:00 10.9 10 Norte 14 Norte 0 -- -- 70
2017-08-12 06:00:00 12 5 Noroeste 10 Noroeste 0 -- -- 65
2017-08-12 05:00:00 13.1 4 Norte 14 Norte 0 -- -- 61
2017-08-12 04:00:00 14 11 Norte 18 Noroeste 0 -- -- 57
2017-08-12 03:00:00 14.6 12 Noroeste 17 Noroeste 0 -- -- 55
2017-08-12 02:00:00 15.1 10 Noroeste 13 Noroeste 0 -- -- 54
2017-08-12 01:00:00 16.6 8 Noroeste 12 Noroeste 0 -- -- 50
2017-08-12 00:00:00 17.8 9 Noroeste 12 Noroeste 0 -- -- 46
2017-08-11 23:00:00 19.5 3 Norte 15 Norte 0 -- -- 42
2017-08-11 22:00:00 21 9 Norte 22 Sudeste 0 -- -- 41
2017-08-11 21:00:00 22.8 17 Sudeste 27 Sudeste 0 -- -- 40
2017-08-11 20:00:00 24.1 21 Sudeste 32 Sudeste 0 -- -- 39
2017-08-11 19:00:00 24.8 25 Sudeste 34 Sudeste 0 -- -- 38
2017-08-11 18:00:00 25.6 25 Sudeste 33 Sudeste 0 -- -- 31
2017-08-11 17:00:00 26.5 18 Sudeste 32 Sudeste 0 -- -- 31
2017-08-11 16:00:00 25.5 23 Sudeste 33 Sudeste 0 -- -- 33
2017-08-11 15:00:00 25 19 Sudeste 25 Sudeste 0 -- -- 36
2017-08-11 14:00:00 24.2 12 Sudeste 20 Este 0 -- -- 35
2017-08-11 13:00:00 23.2 8 Sudeste 16 Sudeste 0 -- -- 34
2017-08-11 12:00:00 20.9 8 Este 14 Este 0 -- -- 36
2017-08-11 11:00:00 18.7 5 Este 10 Este 0 -- -- 42
2017-08-11 10:00:00 16.1 3 Sur 10 Norte 0 -- -- 51
2017-08-11 09:00:00 13 2 Noroeste 8 Norte 0 -- -- 58
2017-08-11 08:00:00 10.9 3 Noroeste 10 Norte 0 -- -- 66
2017-08-11 07:00:00 10.7 8 Norte 10 Norte 0 -- -- 65
2017-08-11 06:00:00 11.5 7 Norte 13 Noroeste 0 -- -- 62
2017-08-11 05:00:00 12.7 7 Noroeste 22 Oeste 0 -- -- 54
2017-08-11 04:00:00 13.6 14 Oeste 26 Oeste 0 -- -- 53
2017-08-11 03:00:00 14.5 11 Noroeste 33 Noroeste 0 -- -- 48
2017-08-11 02:00:00 15.5 23 Noroeste 31 Noroeste 0 -- -- 45
2017-08-11 01:00:00 15.9 23 Noroeste 35 Noroeste 0 -- -- 47
2017-08-11 00:00:00 16.6 26 Oeste 40 Oeste 0 -- -- 47
2017-08-10 23:00:00 17 26 Oeste 37 Oeste 0 -- -- 46
2017-08-10 22:00:00 18.7 24 Noroeste 36 Noroeste 0 -- -- 41
2017-08-10 21:00:00 19.7 22 Noroeste 41 Norte 0 -- -- 38
2017-08-10 20:00:00 21.8 25 Norte 43 Noroeste 0 -- -- 35
2017-08-10 19:00:00 21.9 11 Norte 36 Norte 0 -- -- 38
2017-08-10 18:00:00 22.7 9 Norte 26 Norte 0 -- -- 35
2017-08-10 17:00:00 24.3 3 Norte 17 Noroeste 0 -- -- 32
2017-08-10 16:00:00 24.4 3 Sudoeste 29 Norte 0 -- -- 33
2017-08-10 15:00:00 23.5 6 Norte 15 Este 0 -- -- 35
2017-08-10 14:00:00 23.3 5 Sudeste 15 Este 0 -- -- 40
2017-08-10 13:00:00 22 7 Sudeste 13 Sudeste 0 -- -- 39
2017-08-10 12:00:00 19.9 7 Sudeste 14 Este 0 -- -- 47
2017-08-10 11:00:00 17.6 5 Nordeste 13 Sudeste 0 -- -- 53
2017-08-10 10:00:00 14.9 6 Sudeste 11 Este 0 -- -- 63
2017-08-10 09:00:00 11.2 2 Oeste 8 Nordeste 0 -- -- 76
2017-08-10 08:00:00 9 4 Nordeste 11 Nordeste 0 -- -- 87
2017-08-10 07:00:00 8.6 5 Norte 9 Norte 0 -- -- 83
2017-08-10 06:00:00 9.1 6 Nordeste 10 Norte 0 -- -- 83
2017-08-10 05:00:00 10 6 Norte 13 Noroeste 0 -- -- 84
2017-08-10 04:00:00 11 12 Noroeste 23 Oeste 0 -- -- 70
2017-08-10 03:00:00 11.5 12 Oeste 19 Oeste 0 -- -- 65
2017-08-10 02:00:00 11.8 8 Oeste 13 Oeste 0 -- -- 70
2017-08-10 01:00:00 12.6 5 Sudoeste 9 Noroeste 0 -- -- 87
2017-08-10 00:00:00 13.5 4 Oeste 6 Noroeste 0 -- -- 87
2017-08-09 23:00:00 14.5 4 Norte 14 Sur 0 -- -- 84
2017-08-09 22:00:00 15.1 7 Sur 21 Sur 0 -- -- 83
2017-08-09 21:00:00 15.9 18 Sur 30 Sudeste 0 -- -- 81
2017-08-09 20:00:00 18.2 10 Sudeste 18 Sudeste 0 -- -- 71
2017-08-09 19:00:00 17.8 3 Sur 12 Nordeste 0 -- -- 68
2017-08-09 18:00:00 17.2 4 Sudeste 17 Sudeste 0 -- -- 74
2017-08-09 17:00:00 16.5 16 Este 28 Sudeste 0 -- -- 77
2017-08-09 16:00:00 18.5 23 Sudeste 35 Sudeste 0 -- -- 63
2017-08-09 15:00:00 20.7 12 Sudeste 19 Sudeste 0 -- -- 52
2017-08-09 14:00:00 21.4 6 Sudeste 13 Este 0 -- -- 48
2017-08-09 13:00:00 19.4 4 Este 9 Este 0 -- -- 55
2017-08-09 12:00:00 18 3 Norte 8 Norte 0 -- -- 57
2017-08-09 11:00:00 16.2 3 Este 7 Sudoeste 0 -- -- 63
2017-08-09 10:00:00 15.5 0 Calma 5 Sudoeste 0 -- -- 62
2017-08-09 09:00:00 14 3 Sur 10 Este 0 -- -- 66
2017-08-09 08:00:00 12.5 5 Noroeste 13 Oeste 0 -- -- 70
2017-08-09 07:00:00 12.1 5 Oeste 17 Norte 0 -- -- 73
2017-08-09 06:00:00 11.8 8 Noroeste 17 Norte 0 -- -- 74
2017-08-09 05:00:00 12.9 4 Oeste 8 Oeste 0 -- -- 70
2017-08-09 04:00:00 13.5 8 Oeste 18 Norte 0 -- -- 67
2017-08-09 03:00:00 14.4 9 Norte 19 Noroeste 0 -- -- 71
2017-08-09 02:00:00 15.7 4 Sudeste 10 Sur 0 -- -- 64
2017-08-09 01:00:00 17 5 Oeste 28 Oeste 0 -- -- 56
2017-08-09 00:00:00 18 9 Oeste 28 Oeste 0 -- -- 54
2017-08-08 23:00:00 18.7 17 Oeste 25 Oeste 0 -- -- 53
2017-08-08 22:00:00 20.1 10 Oeste 20 Sudoeste 0 -- -- 48
2017-08-08 21:00:00 22.5 15 Oeste 34 Oeste 0 -- -- 42
2017-08-08 20:00:00 25.6 21 Oeste 34 Oeste 0 -- -- 35
2017-08-08 19:00:00 26.9 23 Oeste 39 Oeste 0 -- -- 32
2017-08-08 18:00:00 27.8 25 Oeste 38 Oeste 0 -- -- 33
2017-08-08 17:00:00 29.1 24 Oeste 38 Oeste 0 -- -- 33
2017-08-08 16:00:00 29.2 17 Sudoeste 33 Sudoeste 0 -- -- 33
2017-08-08 15:00:00 28.7 14 Oeste 29 Sur 0 -- -- 35
2017-08-08 14:00:00 27.9 17 Sudoeste 27 Sudoeste 0 -- -- 41
2017-08-08 13:00:00 27.6 12 Sudoeste 26 Oeste 0 -- -- 47
2017-08-08 12:00:00 24.8 6 Sudoeste 12 Sudoeste 0 -- -- 56
2017-08-08 11:00:00 23.2 5 Sudeste 12 Oeste 0 -- -- 62
2017-08-08 10:00:00 21.7 9 Oeste 15 Oeste 0 -- -- 63
2017-08-08 09:00:00 20.5 3 Sudoeste 17 Oeste 0 -- -- 71
2017-08-08 08:00:00 19.7 9 Oeste 15 Oeste 0 -- -- 74
2017-08-08 07:00:00 19.7 7 Oeste 16 Oeste 0 -- -- 78
2017-08-08 06:00:00 20.5 12 Oeste 22 Oeste 0 -- -- 79
2017-08-08 05:00:00 20.9 5 Sudeste 12 Oeste 0 -- -- 86
2017-08-08 04:00:00 21.4 3 Norte 13 Norte 0 -- -- 84
2017-08-08 03:00:00 21.5 5 Noroeste 13 Norte 0 -- -- 83
2017-08-08 02:00:00 21.7 10 Norte 15 Norte 0 -- -- 80
2017-08-08 01:00:00 22.2 4 Norte 11 Norte 0 -- -- 78
2017-08-08 00:00:00 23 9 Norte 13 Norte 0 -- -- 75
2017-08-07 23:00:00 24.3 9 Norte 14 Norte 0 -- -- 70
2017-08-07 22:00:00 26 4 Nordeste 14 Sur 0 -- -- 64
2017-08-07 21:00:00 27.7 9 Sudoeste 15 Sudoeste 0 -- -- 58
2017-08-07 20:00:00 29.1 2 Nordeste 10 Sudeste 0 -- -- 50
2017-08-07 19:00:00 29.1 8 Sudeste 12 Sudeste 0 -- -- 47
2017-08-07 18:00:00 30.2 4 Sudeste 12 Sudeste 0 -- -- 48
2017-08-07 17:00:00 29.6 5 Sudeste 19 Sudeste 0 -- -- 53
2017-08-07 16:00:00 28.8 12 Sudeste 24 Este 0 -- -- 58
2017-08-07 15:00:00 28 17 Sudeste 29 Sudeste 0 -- -- 62
2017-08-07 14:00:00 26.7 18 Sudeste 26 Sudeste 0 -- -- 67
2017-08-07 13:00:00 26 13 Sudeste 18 Sudeste 0 -- -- 71
2017-08-07 12:00:00 24.8 5 Sudeste 11 Sur 0 -- -- 70
2017-08-07 11:00:00 23.1 4 Nordeste 9 Este 0 -- -- 77
2017-08-07 10:00:00 21.4 2 Nordeste 4 Sur 0 -- -- 86
2017-08-07 09:00:00 20.1 2 Norte 6 Noroeste 0 -- -- 90
2017-08-07 08:00:00 19.4 5 Noroeste 8 Oeste 0 -- -- 93
2017-08-07 07:00:00 19.3 5 Noroeste 10 Noroeste 0 -- -- 91
2017-08-07 06:00:00 19.2 5 Noroeste 8 Oeste 0 -- -- 93
2017-08-07 05:00:00 19.7 3 Oeste 8 Noroeste 0 -- -- 90
2017-08-07 04:00:00 20 7 Noroeste 10 Oeste 0 -- -- 89
2017-08-07 03:00:00 20 6 Oeste 12 Norte 0 -- -- 90
2017-08-07 02:00:00 19.9 13 Norte 16 Norte 0.2 -- -- 91
2017-08-07 01:00:00 20.9 5 Oeste 13 Noroeste 0 -- -- 84
2017-08-07 00:00:00 21.1 8 Noroeste 15 Norte 0 -- -- 84
2017-08-06 23:00:00 22.2 8 Noroeste 15 Noroeste 0 -- -- 79
2017-08-06 22:00:00 23.1 11 Noroeste 18 Norte 0 -- -- 76
2017-08-06 21:00:00 25.8 9 Norte 11 Norte 0 -- -- 65
2017-08-06 20:00:00 28.1 2 Sudeste 8 Norte 0 -- -- 55
2017-08-06 19:00:00 28.3 5 Norte 12 Nordeste 0 -- -- 55
2017-08-06 18:00:00 27.6 2 Este 15 Noroeste 0 -- -- 57
2017-08-06 17:00:00 26.6 10 Norte 17 Norte 0 -- -- 65
2017-08-06 16:00:00 26.9 4 Norte 12 Nordeste 0 -- -- 62
2017-08-06 15:00:00 25.2 6 Nordeste 13 Norte 0 -- -- 73
2017-08-06 14:00:00 22.4 4 Nordeste 7 Norte 0 -- -- 82
2017-08-06 13:00:00 21.3 0 Calma 7 Este 0 -- -- 84
2017-08-06 12:00:00 20.6 4 Este 14 Sudeste 0 -- -- 88
2017-08-06 11:00:00 19.4 11 Sudeste 14 Este 0 -- -- 92
2017-08-06 10:00:00 19.7 9 Sudeste 12 Este 0 -- -- 94
2017-08-06 09:00:00 20 4 Norte 5 Norte 0 -- -- 96
2017-08-06 08:00:00 19.6 3 Sur 10 Norte 0 -- -- 96
2017-08-06 07:00:00 19.5 5 Noroeste 12 Norte 0 -- -- 95
2017-08-06 06:00:00 19.3 6 Noroeste 17 Norte 0 -- -- 94
2017-08-06 05:00:00 19.2 12 Norte 18 Norte 2.2 -- -- 93
2017-08-06 04:00:00 19.7 3 Este 17 Oeste 2.6 -- -- 94
2017-08-06 03:00:00 19.3 14 Norte 25 Norte 0 -- -- 93
2017-08-06 02:00:00 19.7 10 Norte 24 Oeste 3 -- -- 90
2017-08-06 01:00:00 19.9 11 Norte 23 Noroeste 0.2 -- -- 89
2017-08-06 00:00:00 20.5 12 Norte 18 Norte 0.2 -- -- 85
2017-08-05 23:00:00 21.1 16 Norte 33 Norte 0 -- -- 76
2017-08-05 22:00:00 20.5 24 Norte 32 Norte 6.2 -- -- 80
2017-08-05 21:00:00 22.8 22 Norte 43 Norte 0 -- -- 69
2017-08-05 20:00:00 23.3 14 Norte 31 Norte 0.2 -- -- 75
2017-08-05 19:00:00 21.9 19 Norte 53 Norte 6.4 -- -- 84
2017-08-05 18:00:00 28.9 20 Norte 49 Norte 0 -- -- 49
2017-08-05 17:00:00 34.7 22 Sudeste 31 Sur 0 -- -- 37
2017-08-05 16:00:00 34.6 22 Sudeste 30 Sudeste 0 -- -- 37
2017-08-05 15:00:00 34.9 16 Sudeste 23 Sudeste 0 -- -- 39
2017-08-05 14:00:00 34.2 16 Sudeste 21 Sudeste 0 -- -- 40
2017-08-05 13:00:00 32.8 8 Este 19 Norte 0 -- -- 42
2017-08-05 12:00:00 30.4 6 Nordeste 13 Nordeste 0 -- -- 45
2017-08-05 11:00:00 28.8 3 Sudoeste 9 Sudeste 0 -- -- 50
2017-08-05 10:00:00 25.5 3 Sudeste 6 Oeste 0 -- -- 58
2017-08-05 09:00:00 22.8 4 Noroeste 10 Noroeste 0 -- -- 65
2017-08-05 08:00:00 21.3 4 Oeste 9 Noroeste 0 -- -- 67
2017-08-05 07:00:00 21.4 6 Noroeste 13 Noroeste 0 -- -- 66
2017-08-05 06:00:00 21.7 9 Noroeste 14 Oeste 0 -- -- 66
2017-08-05 05:00:00 22.2 9 Oeste 14 Oeste 0 -- -- 64
2017-08-05 04:00:00 23.1 5 Noroeste 15 Noroeste 0 -- -- 61
2017-08-05 03:00:00 23.9 7 Noroeste 12 Norte 0 -- -- 58
2017-08-05 02:00:00 24.8 8 Norte 18 Norte 0 -- -- 56
2017-08-05 01:00:00 25.8 13 Norte 17 Noroeste 0 -- -- 53
2017-08-05 00:00:00 27.1 15 Norte 20 Noroeste 0 -- -- 49
2017-08-04 23:00:00 29.3 11 Noroeste 16 Noroeste 0 -- -- 43
2017-08-04 22:00:00 31.6 6 Oeste 16 Oeste 0 -- -- 38
2017-08-04 21:00:00 33.2 7 Oeste 22 Sudeste 0 -- -- 36
2017-08-04 20:00:00 33.7 16 Sudeste 32 Sudeste 0 -- -- 37
2017-08-04 19:00:00 34.3 21 Sudeste 34 Sudeste 0 -- -- 36
2017-08-04 18:00:00 34.6 22 Sudeste 33 Sudeste 0 -- -- 36
2017-08-04 17:00:00 34.8 22 Sudeste 34 Sudeste 0 -- -- 35
2017-08-04 16:00:00 35.1 22 Sudeste 32 Sudeste 0 -- -- 35
2017-08-04 15:00:00 35.3 16 Sudeste 25 Sudeste 0 -- -- 34
2017-08-04 14:00:00 35.1 14 Sudeste 20 Sudeste 0 -- -- 34
2017-08-04 13:00:00 33.8 14 Sudeste 19 Sudeste 0 -- -- 35
2017-08-04 12:00:00 32.2 13 Sudeste 18 Este 0 -- -- 38
2017-08-04 11:00:00 29 5 Sur 9 Sudeste 0 -- -- 42
2017-08-04 10:00:00 25.7 4 Sur 9 Sudeste 0 -- -- 51
2017-08-04 09:00:00 22.6 0 Calma 6 Norte 0 -- -- 58
2017-08-04 08:00:00 20.3 4 Noroeste 8 Noroeste 0 -- -- 59
2017-08-04 07:00:00 20.2 4 Noroeste 8 Oeste 0 -- -- 56
2017-08-04 06:00:00 20.6 5 Noroeste 12 Norte 0 -- -- 56
2017-08-04 05:00:00 20.4 10 Oeste 16 Noroeste 0 -- -- 54
2017-08-04 04:00:00 21.2 8 Noroeste 17 Oeste 0 -- -- 52
2017-08-04 03:00:00 21.5 10 Oeste 16 Noroeste 0 -- -- 52
2017-08-04 02:00:00 22.9 6 Oeste 10 Oeste 0 -- -- 47
2017-08-04 01:00:00 24.4 2 Oeste 14 Oeste 0 -- -- 45
2017-08-04 00:00:00 25.1 6 Noroeste 12 Oeste 0 -- -- 44
2017-08-03 23:00:00 26.4 7 Noroeste 12 Noroeste 0 -- -- 41
2017-08-03 22:00:00 29.6 6 Noroeste 19 Sudoeste 0 -- -- 35
2017-08-03 21:00:00 33 14 Sudoeste 29 Sudoeste 0 -- -- 28
2017-08-03 20:00:00 34.5 17 Sur 27 Sur 0 -- -- 28
2017-08-03 19:00:00 35.1 13 Sur 25 Sudeste 0 -- -- 28
2017-08-03 18:00:00 35.3 17 Sudeste 25 Sudeste 0 -- -- 31
2017-08-03 17:00:00 36 13 Sudeste 19 Sudeste 0 -- -- 28
2017-08-03 16:00:00 36.5 12 Sudeste 19 Sudeste 0 -- -- 30
2017-08-03 15:00:00 35.9 9 Sudeste 17 Sudeste 0 -- -- 29
2017-08-03 14:00:00 35.2 5 Este 16 Sudeste 0 -- -- 31
2017-08-03 13:00:00 33.9 7 Sudeste 13 Sudeste 0 -- -- 33
2017-08-03 12:00:00 32.2 6 Sudoeste 11 Oeste 0 -- -- 35
2017-08-03 11:00:00 29 3 Sudoeste 9 Sur 0 -- -- 43
2017-08-03 10:00:00 25.5 3 Sudoeste 6 Sudoeste 0 -- -- 50
2017-08-03 09:00:00 22.2 0 Calma 9 Noroeste 0 -- -- 63
2017-08-03 08:00:00 19.7 4 Oeste 13 Noroeste 0 -- -- 66
2017-08-03 07:00:00 19.7 6 Noroeste 11 Noroeste 0 -- -- 65
2017-08-03 06:00:00 19.5 7 Noroeste 17 Norte 0 -- -- 66
2017-08-03 05:00:00 20.5 7 Noroeste 12 Noroeste 0 -- -- 61
2017-08-03 04:00:00 20.9 9 Noroeste 14 Oeste 0 -- -- 59
2017-08-03 03:00:00 21.5 9 Noroeste 12 Noroeste 0 -- -- 57
2017-08-03 02:00:00 22.1 8 Noroeste 14 Noroeste 0 -- -- 54
2017-08-03 01:00:00 22.9 8 Noroeste 11 Noroeste 0 -- -- 51
2017-08-03 00:00:00 23.7 5 Noroeste 14 Oeste 0 -- -- 48
2017-08-02 23:00:00 25.1 8 Oeste 18 Oeste 0 -- -- 45
2017-08-02 22:00:00 27.2 12 Oeste 13 Oeste 0 -- -- 41
2017-08-02 21:00:00 30.1 5 Sur 23 Este 0 -- -- 33
2017-08-02 20:00:00 30.7 23 Sudeste 31 Sudeste 0 -- -- 33
2017-08-02 19:00:00 32.3 13 Sudeste 27 Sudeste 0 -- -- 32
2017-08-02 18:00:00 32.4 15 Sudeste 29 Sur 0 -- -- 31
2017-08-02 17:00:00 31.9 22 Sur 33 Sur 0 -- -- 35
2017-08-02 16:00:00 32.6 18 Sudeste 23 Sudeste 0 -- -- 35
2017-08-02 15:00:00 34.1 15 Sur 32 Sur 0 -- -- 32
2017-08-02 14:00:00 33.2 15 Sudeste 24 Sudeste 0 -- -- 34
2017-08-02 13:00:00 32.9 8 Sudeste 17 Sudeste 0 -- -- 38
2017-08-02 12:00:00 30.6 3 Sudoeste 9 Sudeste 0 -- -- 43
2017-08-02 11:00:00 26.4 5 Oeste 10 Oeste 0 -- -- 55
2017-08-02 10:00:00 22.9 3 Noroeste 7 Este 0 -- -- 64
2017-08-02 09:00:00 20.8 3 Noroeste 9 Norte 0 -- -- 70
2017-08-02 08:00:00 19.6 5 Noroeste 17 Nordeste 0 -- -- 72
2017-08-02 07:00:00 19.2 8 Oeste 19 Norte 0 -- -- 73
2017-08-02 06:00:00 19.3 9 Noroeste 15 Noroeste 0 -- -- 74
2017-08-02 05:00:00 19.4 10 Noroeste 14 Noroeste 0 -- -- 73
2017-08-02 04:00:00 20 6 Noroeste 14 Noroeste 0 -- -- 72
2017-08-02 03:00:00 20.2 8 Noroeste 15 Norte 0 -- -- 70
2017-08-02 02:00:00 21.4 11 Noroeste 14 Noroeste 0 -- -- 65
2017-08-02 01:00:00 21.9 11 Noroeste 13 Noroeste 0 -- -- 66
2017-08-02 00:00:00 22.9 7 Norte 11 Oeste 0 -- -- 59
2017-08-01 23:00:00 25.4 3 Norte 14 Sudeste 0 -- -- 52
2017-08-01 22:00:00 27 7 Sur 12 Sudoeste 0 -- -- 49
2017-08-01 21:00:00 28.7 9 Sur 21 Sudeste 0 -- -- 43
2017-08-01 20:00:00 30.4 14 Sudeste 21 Sudeste 0 -- -- 45
2017-08-01 19:00:00 30.9 11 Sudeste 18 Sur 0 -- -- 45
2017-08-01 18:00:00 30.8 16 Sur 32 Sur 0 -- -- 47
2017-08-01 17:00:00 30.5 17 Sudeste 22 Sudeste 0 -- -- 51
2017-08-01 16:00:00 31.1 12 Sudeste 18 Sudeste 0 -- -- 51
2017-08-01 15:00:00 29.8 9 Sur 14 Sur 0 -- -- 54
2017-08-01 14:00:00 28.6 7 Sudeste 17 Sudeste 0 -- -- 56
2017-08-01 13:00:00 28.9 9 Sudeste 17 Sudeste 0 -- -- 53
2017-08-01 12:00:00 27.8 9 Sudeste 14 Sudeste 0 -- -- 53
2017-08-01 11:00:00 26.6 3 Oeste 11 Sudoeste 0 -- -- 60
2017-08-01 10:00:00 22.8 3 Oeste 13 Norte 0 -- -- 71
2017-08-01 09:00:00 20.1 9 Noroeste 16 Noroeste 0 -- -- 82
2017-08-01 08:00:00 18.5 5 Nordeste 17 Norte 0.2 -- -- 83
2017-08-01 07:00:00 18.5 11 Oeste 25 Sudoeste 0.8 -- -- 81
2017-08-01 06:00:00 18.9 16 Noroeste 26 Norte 0.4 -- -- 75
2017-08-01 05:00:00 20.6 7 Noroeste 13 Norte 0 -- -- 57
2017-08-01 04:00:00 21 10 Noroeste 15 Norte 0 -- -- 53
2017-08-01 03:00:00 22.1 8 Noroeste 13 Oeste 0 -- -- 51
2017-08-01 02:00:00 23 5 Noroeste 13 Oeste 0 -- -- 49
2017-08-01 01:00:00 23.7 14 Oeste 17 Oeste 0 -- -- 47
2017-08-01 00:00:00 25.3 10 Noroeste 14 Noroeste 0 -- -- 44
2017-07-31 23:00:00 28.4 3 Norte 9 Noroeste 0 -- -- 35
2017-07-31 22:00:00 29.7 4 Sur 21 Sudeste 0 -- -- 32
2017-07-31 21:00:00 31.3 15 Sur 22 Sur 0 -- -- 30
2017-07-31 20:00:00 33.4 14 Sur 27 Sur 0 -- -- 29
2017-07-31 19:00:00 34 19 Sudeste 29 Sudeste 0 -- -- 33
2017-07-31 18:00:00 34.6 16 Sur 32 Sudeste 0 -- -- 33
2017-07-31 17:00:00 34.7 19 Sudeste 32 Sudeste 0 -- -- 31
2017-07-31 16:00:00 34.3 18 Sudeste 26 Sudeste 0 -- -- 32
2017-07-31 15:00:00 33.4 19 Sudeste 28 Sudeste 0 -- -- 36
2017-07-31 14:00:00 33.2 13 Sudeste 22 Sudeste 0 -- -- 33
2017-07-31 13:00:00 31.8 10 Sudeste 22 Sudeste 0 -- -- 39
2017-07-31 12:00:00 29.5 9 Sudeste 13 Sudeste 0 -- -- 43
2017-07-31 11:00:00 27.2 5 Este 11 Este 0 -- -- 46
2017-07-31 10:00:00 23.5 2 Sur 7 Oeste 0 -- -- 62
2017-07-31 09:00:00 20.3 5 Noroeste 12 Norte 0 -- -- 72
2017-07-31 08:00:00 18.6 5 Noroeste 18 Noroeste 0 -- -- 76
2017-07-31 07:00:00 18.9 8 Noroeste 11 Noroeste 0 -- -- 75
2017-07-31 06:00:00 19.8 6 Noroeste 14 Norte 0 -- -- 72
2017-07-31 05:00:00 20.5 7 Noroeste 11 Oeste 0 -- -- 70
2017-07-31 04:00:00 21.3 6 Norte 10 Norte 0 -- -- 67
2017-07-31 03:00:00 22.1 3 Nordeste 10 Noroeste 0 -- -- 64
2017-07-31 02:00:00 22.8 5 Norte 15 Oeste 0 -- -- 61
2017-07-31 01:00:00 23.7 7 Oeste 20 Oeste 0 -- -- 56
2017-07-31 00:00:00 25.7 10 Noroeste 23 Oeste 0 -- -- 47
2017-07-30 23:00:00 28.4 6 Sudoeste 35 Este 0 -- -- 40
2017-07-30 22:00:00 29.9 15 Sur 30 Sudeste 0 -- -- 45
2017-07-30 21:00:00 31.9 11 Sur 25 Sudeste 0 -- -- 29
2017-07-30 20:00:00 33.3 17 Sudeste 27 Sudeste 0 -- -- 29
2017-07-30 19:00:00 32.9 23 Sudeste 30 Sudeste 0 -- -- 32
2017-07-30 18:00:00 33.5 21 Sudeste 30 Sudeste 0 -- -- 29
2017-07-30 17:00:00 34.9 23 Sudeste 40 Sur 0 -- -- 29
2017-07-30 16:00:00 34.7 23 Sur 35 Sur 0 -- -- 28
2017-07-30 15:00:00 34.6 23 Sudeste 35 Sudeste 0 -- -- 33
2017-07-30 14:00:00 33.4 18 Sudeste 24 Sudeste 0 -- -- 36
2017-07-30 13:00:00 31.7 15 Sudeste 20 Sudeste 0 -- -- 46
2017-07-30 12:00:00 30.7 8 Sudeste 13 Sudeste 0 -- -- 50
2017-07-30 11:00:00 28 5 Sudeste 10 Este 0 -- -- 56
2017-07-30 10:00:00 24.9 0 Calma 5 Oeste 0 -- -- 65
2017-07-30 09:00:00 22.6 0 Calma 6 Oeste 0 -- -- 70
2017-07-30 08:00:00 20.7 2 Noroeste 7 Oeste 0 -- -- 77
2017-07-30 07:00:00 20.4 6 Oeste 10 Oeste 0 -- -- 76
2017-07-30 06:00:00 20.8 4 Noroeste 10 Oeste 0 -- -- 74
2017-07-30 05:00:00 21.2 5 Noroeste 12 Noroeste 0 -- -- 72
2017-07-30 04:00:00 21.8 2 Oeste 8 Noroeste 0 -- -- 67
2017-07-30 03:00:00 22.5 4 Oeste 8 Oeste 0 -- -- 65
2017-07-30 02:00:00 22.8 8 Noroeste 21 Oeste 0 -- -- 65
2017-07-30 01:00:00 23.7 6 Norte 13 Norte 0 -- -- 66
2017-07-30 00:00:00 25.2 7 Noroeste 12 Noroeste 0 -- -- 63
2017-07-29 23:00:00 27.1 9 Este 16 Sur 0 -- -- 59
2017-07-29 22:00:00 28.2 15 Sudeste 23 Sudeste 0 -- -- 55
2017-07-29 21:00:00 29.5 17 Sudeste 23 Sudeste 0 -- -- 52
2017-07-29 20:00:00 31.7 15 Sudeste 24 Sudeste 0 -- -- 41
2017-07-29 19:00:00 32.3 18 Sudeste 23 Sudeste 0 -- -- 42
2017-07-29 18:00:00 32.8 16 Sudeste 23 Sudeste 0 -- -- 41
2017-07-29 17:00:00 33 15 Sudeste 20 Sudeste 0 -- -- 39
2017-07-29 16:00:00 32.9 13 Sudeste 22 Sudeste 0 -- -- 39
2017-07-29 15:00:00 32.4 16 Sudeste 24 Sudeste 0 -- -- 41
2017-07-29 14:00:00 31.7 12 Sudeste 19 Este 0 -- -- 47
2017-07-29 13:00:00 30.3 10 Sur 16 Sudeste 0 -- -- 51
2017-07-29 12:00:00 28.7 8 Sudeste 15 Sudeste 0 -- -- 53
2017-07-29 11:00:00 26.7 8 Sudeste 12 Sudeste 0 -- -- 58
2017-07-29 10:00:00 24 4 Sudeste 9 Sur 0 -- -- 59
2017-07-29 09:00:00 21.1 0 Calma 8 Oeste 0 -- -- 64
2017-07-29 08:00:00 18.8 4 Oeste 7 Noroeste 0 -- -- 74
2017-07-29 07:00:00 19.1 3 Oeste 6 Oeste 0 -- -- 66
2017-07-29 06:00:00 19.3 9 Norte 12 Norte 0 -- -- 73
2017-07-29 05:00:00 19.7 5 Noroeste 13 Norte 0 -- -- 73
2017-07-29 04:00:00 20.4 7 Noroeste 13 Oeste 0 -- -- 66
2017-07-29 03:00:00 20.6 8 Noroeste 14 Oeste 0 -- -- 63
2017-07-29 02:00:00 21 9 Oeste 12 Oeste 0 -- -- 62
2017-07-29 01:00:00 22.4 8 Oeste 10 Oeste 0 -- -- 59
2017-07-29 00:00:00 23.7 8 Oeste 10 Oeste 0 -- -- 57
2017-07-28 23:00:00 25.7 5 Oeste 17 Sudeste 0 -- -- 55
2017-07-28 22:00:00 27.9 13 Sudeste 23 Sudeste 0 -- -- 49
2017-07-28 21:00:00 29.4 15 Sudeste 22 Sudeste 0 -- -- 47
2017-07-28 20:00:00 30.7 18 Sudeste 28 Sudeste 0 -- -- 44
2017-07-28 19:00:00 31.5 18 Sudeste 27 Sudeste 0 -- -- 43
2017-07-28 18:00:00 31.4 20 Sudeste 28 Sudeste 0 -- -- 46
2017-07-28 17:00:00 31.6 23 Sudeste 31 Sudeste 0 -- -- 47
2017-07-28 16:00:00 31.7 21 Sudeste 25 Sudeste 0 -- -- 47
2017-07-28 15:00:00 31.9 17 Sudeste 28 Sudeste 0 -- -- 44
2017-07-28 14:00:00 31.6 13 Sudeste 21 Sudeste 0 -- -- 43
2017-07-28 13:00:00 30 14 Sudeste 21 Sudeste 0 -- -- 46
2017-07-28 12:00:00 28.8 10 Sudeste 13 Sudeste 0 -- -- 48
2017-07-28 11:00:00 26.5 5 Sudeste 9 Este 0 -- -- 43
2017-07-28 10:00:00 22.9 2 Sudoeste 8 Este 0 -- -- 51
2017-07-28 09:00:00 20.2 3 Sur 11 Norte 0 -- -- 57
2017-07-28 08:00:00 17.9 5 Noroeste 13 Noroeste 0 -- -- 59
2017-07-28 07:00:00 17 8 Noroeste 13 Oeste 0 -- -- 58
2017-07-28 06:00:00 17.7 7 Noroeste 12 Norte 0 -- -- 54
2017-07-28 05:00:00 18.7 6 Oeste 17 Norte 0 -- -- 51
2017-07-28 04:00:00 19.2 12 Noroeste 19 Norte 0 -- -- 50
2017-07-28 03:00:00 20.1 13 Norte 22 Norte 0 -- -- 47
2017-07-28 02:00:00 20.5 11 Oeste 19 Noroeste 0 -- -- 47
2017-07-28 01:00:00 21.5 14 Norte 23 Norte 0 -- -- 44
2017-07-28 00:00:00 23.2 9 Norte 20 Norte 0 -- -- 41
2017-07-27 23:00:00 24.9 8 Noroeste 15 Noroeste 0 -- -- 38
2017-07-27 22:00:00 27.3 9 Noroeste 17 Noroeste 0 -- -- 34
2017-07-27 21:00:00 31.5 10 Oeste 23 Sudoeste 0 -- -- 25
2017-07-27 20:00:00 33.6 16 Oeste 40 Oeste 0 -- -- 22
2017-07-27 19:00:00 34.4 23 Oeste 37 Oeste 0 -- -- 20
2017-07-27 18:00:00 34.6 21 Oeste 29 Oeste 0 -- -- 22
2017-07-27 17:00:00 32.5 15 Sudeste 28 Sudeste 0 -- -- 32
2017-07-27 16:00:00 32.3 18 Sudeste 27 Sudeste 0 -- -- 37
2017-07-27 15:00:00 31.3 18 Sudeste 27 Sudeste 0 -- -- 38
2017-07-27 14:00:00 30.4 14 Sudeste 20 Sudeste 0 -- -- 40
2017-07-27 13:00:00 28.6 12 Sudeste 19 Sur 0 -- -- 40
2017-07-27 12:00:00 27.1 8 Sudeste 13 Sudeste 0 -- -- 40
2017-07-27 11:00:00 24.7 6 Sudeste 10 Sudeste 0 -- -- 42
2017-07-27 10:00:00 21.5 3 Sudoeste 6 Sudoeste 0 -- -- 50
2017-07-27 09:00:00 17.9 4 Norte 10 Norte 0 -- -- 63
2017-07-27 08:00:00 15.4 3 Sudoeste 11 Norte 0 -- -- 69
2017-07-27 07:00:00 15.7 6 Noroeste 9 Oeste 0 -- -- 67
2017-07-27 06:00:00 16.2 7 Noroeste 18 Norte 0 -- -- 64
2017-07-27 05:00:00 16.9 8 Noroeste 13 Noroeste 0 -- -- 66
2017-07-27 04:00:00 18 6 Noroeste 11 Noroeste 0 -- -- 62
2017-07-27 03:00:00 18.7 9 Noroeste 13 Norte 0 -- -- 63
2017-07-27 02:00:00 20.1 5 Noroeste 10 Oeste 0 -- -- 56
2017-07-27 01:00:00 21.5 5 Noroeste 12 Norte 0 -- -- 52
2017-07-27 00:00:00 22.4 5 Noroeste 15 Norte 0 -- -- 51
2017-07-26 23:00:00 23.9 9 Noroeste 22 Oeste 0 -- -- 47
2017-07-26 22:00:00 24.8 13 Oeste 18 Oeste 0 -- -- 47
2017-07-26 21:00:00 28.9 3 Oeste 11 Sur 0 -- -- 42
2017-07-26 20:00:00 29.1 8 Sudeste 13 Sudeste 0 -- -- 36
2017-07-26 19:00:00 29.5 10 Sudeste 15 Sudeste 0 -- -- 37
2017-07-26 18:00:00 29.3 12 Sudeste 18 Sudeste 0 -- -- 37
2017-07-26 17:00:00 28.9 13 Sudeste 20 Sudeste 0 -- -- 37
2017-07-26 16:00:00 28.4 12 Sudeste 21 Sudeste 0 -- -- 40
2017-07-26 15:00:00 27 15 Sudeste 21 Sudeste 0 -- -- 42
2017-07-26 14:00:00 25.9 12 Sudeste 22 Sudeste 0 -- -- 43
2017-07-26 13:00:00 24.7 13 Sudeste 20 Sudeste 0 -- -- 44
2017-07-26 12:00:00 23.5 11 Sudeste 16 Sudeste 0 -- -- 40
2017-07-26 11:00:00 21 6 Sudeste 11 Este 0 -- -- 46
2017-07-26 10:00:00 18.7 3 Sudeste 8 Este 0 -- -- 56
2017-07-26 09:00:00 15.3 2 Norte 9 Nordeste 0 -- -- 60
2017-07-26 08:00:00 12.8 5 Noroeste 12 Norte 0 -- -- 67
2017-07-26 07:00:00 12.1 8 Noroeste 15 Norte 0 -- -- 68
2017-07-26 06:00:00 13.4 6 Oeste 14 Norte 0 -- -- 65
2017-07-26 05:00:00 14.4 8 Norte 14 Noroeste 0 -- -- 60
2017-07-26 04:00:00 15.7 7 Noroeste 16 Oeste 0 -- -- 57
2017-07-26 03:00:00 16.4 13 Noroeste 19 Oeste 0 -- -- 56
2017-07-26 02:00:00 17.6 15 Oeste 21 Oeste 0 -- -- 53
2017-07-26 01:00:00 19.3 15 Oeste 22 Oeste 0 -- -- 47
2017-07-26 00:00:00 20.5 17 Oeste 21 Oeste 0 -- -- 43
2017-07-25 23:00:00 21.6 11 Noroeste 29 Oeste 0 -- -- 42
2017-07-25 22:00:00 22.3 18 Noroeste 32 Oeste 0 -- -- 42
2017-07-25 21:00:00 24.4 18 Noroeste 31 Noroeste 0 -- -- 41
2017-07-25 20:00:00 26.2 19 Noroeste 27 Noroeste 0 -- -- 38
2017-07-25 19:00:00 27.7 10 Sudeste 21 Sudeste 0 -- -- 36
2017-07-25 18:00:00 27.8 16 Sudeste 26 Sudeste 0 -- -- 35
2017-07-25 17:00:00 27.9 15 Sudeste 25 Sudeste 0 -- -- 36
2017-07-25 16:00:00 27.8 16 Sudeste 28 Sudeste 0 -- -- 36
2017-07-25 15:00:00 26.9 19 Sudeste 28 Sudeste 0 -- -- 39
2017-07-25 14:00:00 26.2 18 Sudeste 26 Sudeste 0 -- -- 43
2017-07-25 13:00:00 25.9 10 Sudeste 16 Sudeste 0 -- -- 39
2017-07-25 12:00:00 24 6 Sudeste 14 Este 0 -- -- 43
2017-07-25 11:00:00 22.1 9 Sudeste 13 Este 0 -- -- 50
2017-07-25 10:00:00 19.4 4 Sudeste 10 Nordeste 0 -- -- 54
2017-07-25 09:00:00 15.9 6 Norte 14 Norte 0 -- -- 57
2017-07-25 08:00:00 13.8 6 Norte 13 Noroeste 0 -- -- 68
2017-07-25 07:00:00 12.6 10 Norte 15 Norte 0 -- -- 71
2017-07-25 06:00:00 13.5 8 Norte 13 Norte 0 -- -- 69
2017-07-25 05:00:00 14.5 10 Norte 15 Norte 0 -- -- 65
2017-07-25 04:00:00 15.9 6 Noroeste 13 Noroeste 0 -- -- 58
2017-07-25 03:00:00 17 5 Noroeste 30 Oeste 0 -- -- 57
2017-07-25 02:00:00 18.1 25 Oeste 32 Oeste 0 -- -- 53
2017-07-25 01:00:00 19.7 17 Oeste 38 Oeste 0 -- -- 45
2017-07-25 00:00:00 20.6 27 Oeste 48 Oeste 0 -- -- 44
2017-07-24 23:00:00 21.4 28 Oeste 42 Oeste 0 -- -- 44
2017-07-24 22:00:00 22.4 25 Noroeste 36 Noroeste 0 -- -- 41
2017-07-24 21:00:00 24.6 22 Noroeste 37 Noroeste 0 -- -- 39
2017-07-24 20:00:00 26.8 21 Noroeste 35 Noroeste 0 -- -- 36
2017-07-24 19:00:00 28.3 19 Noroeste 35 Noroeste 0 -- -- 33
2017-07-24 18:00:00 29.2 17 Noroeste 32 Noroeste 0 -- -- 31
2017-07-24 17:00:00 28.9 14 Noroeste 37 Noroeste 0 -- -- 35
2017-07-24 16:00:00 29.8 7 Norte 29 Noroeste 0 -- -- 31
2017-07-24 15:00:00 28.8 18 Oeste 27 Oeste 0 -- -- 38
2017-07-24 14:00:00 28.8 14 Oeste 22 Oeste 0 -- -- 36
2017-07-24 13:00:00 26.9 11 Oeste 27 Oeste 0 -- -- 41
2017-07-24 12:00:00 26.6 13 Oeste 23 Sudoeste 0 -- -- 43
2017-07-24 11:00:00 23.6 6 Sudeste 13 Sudeste 0 -- -- 60
2017-07-24 10:00:00 21.1 7 Este 12 Este 0 -- -- 71
2017-07-24 09:00:00 18.2 6 Nordeste 12 Norte 0 -- -- 84
2017-07-24 08:00:00 15.2 3 Este 9 Nordeste 0 -- -- 93
2017-07-24 07:00:00 14.9 3 Noroeste 6 Norte 0 -- -- 94
2017-07-24 06:00:00 15 3 Noroeste 9 Noroeste 0 -- -- 89
2017-07-24 05:00:00 15.8 5 Norte 12 Noroeste 0 -- -- 88
2017-07-24 04:00:00 16.5 3 Noroeste 9 Oeste 0 -- -- 92
2017-07-24 03:00:00 17 6 Norte 11 Noroeste 0 -- -- 93
2017-07-24 02:00:00 17.7 4 Noroeste 12 Norte 0 -- -- 90
2017-07-24 01:00:00 18.1 8 Norte 14 Noroeste 0 -- -- 90
2017-07-24 00:00:00 19.2 6 Norte 14 Norte 0 -- -- 85
2017-07-23 23:00:00 19.9 8 Norte 15 Norte 0 -- -- 82
2017-07-23 22:00:00 21.6 2 Norte 8 Norte 0 -- -- 70
2017-07-23 21:00:00 23 6 Sudoeste 11 Este 0 -- -- 65
2017-07-23 20:00:00 24.1 10 Este 31 Este 0 -- -- 61
2017-07-23 19:00:00 25.7 5 Sudeste 42 Sudeste 0 -- -- 58
2017-07-23 18:00:00 26.8 33 Sudeste 42 Sudeste 0 -- -- 62
2017-07-23 17:00:00 28.4 24 Sudeste 41 Sudeste 0 -- -- 54
2017-07-23 16:00:00 28 21 Sudeste 38 Sur 0 -- -- 57
2017-07-23 15:00:00 28.3 19 Sur 33 Sur 0 -- -- 55
2017-07-23 14:00:00 27.8 20 Sudeste 31 Sudeste 0 -- -- 64
2017-07-23 13:00:00 28.2 16 Sudeste 23 Sudeste 0 -- -- 59
2017-07-23 12:00:00 27.1 10 Sudeste 18 Sudeste 0 -- -- 62
2017-07-23 11:00:00 24.2 3 Oeste 9 Sudoeste 0 -- -- 67
2017-07-23 10:00:00 21 2 Oeste 6 Sudoeste 0 -- -- 76
2017-07-23 09:00:00 19.5 5 Oeste 10 Norte 0 -- -- 78
2017-07-23 08:00:00 18.3 3 Oeste 14 Norte 0 -- -- 82
2017-07-23 07:00:00 17.8 7 Noroeste 12 Noroeste 0 -- -- 85
2017-07-23 06:00:00 17.9 3 Noroeste 6 Oeste 0 -- -- 85
2017-07-23 05:00:00 18 4 Oeste 10 Noroeste 0 -- -- 84
2017-07-23 04:00:00 18.6 8 Noroeste 11 Oeste 0 -- -- 79
2017-07-23 03:00:00 19 8 Oeste 12 Oeste 0 -- -- 78
2017-07-23 02:00:00 19.7 6 Noroeste 13 Oeste 0 -- -- 76
2017-07-23 01:00:00 20.2 9 Noroeste 10 Oeste 0 -- -- 73
2017-07-23 00:00:00 21.2 4 Noroeste 13 Oeste 0 -- -- 74